| time (UTC) | temp F | wind direction | speed knots | gust knots | rain 1hr in | rain 24hr in | rain mn in | humidity % | barometer mb |
| 20260504050717 | 87 | 0.0 | 0.0 | 0.00 | 0.00 | 0.00 | 46 | 979.0 | |
| 20260504045717 | 87 | 0.0 | 0.0 | 0.00 | 0.00 | 0.00 | 47 | 979.1 | |
| 20260504044717 | 88 | 0.0 | 0.0 | 0.00 | 0.00 | 0.00 | 47 | 979.1 | |
| 20260504043717 | 87 | 0.0 | 0.0 | 0.00 | 0.00 | 0.00 | 48 | 979.1 | |
| 20260504042717 | 87 | 0.0 | 0.0 | 0.00 | 0.00 | 0.00 | 49 | 979.1 | |
| 20260504041717 | 85 | 0.0 | 0.0 | 0.00 | 0.00 | 0.00 | 50 | 979.1 | |
| 20260504040126 | 84 | 0.0 | 0.0 | 0.00 | 0.00 | 0.00 | 52 | 978.9 | |
| 20260504035126 | 83 | 0.0 | 0.0 | 0.00 | 0.00 | 0.00 | 53 | 978.9 | |
| 20260504034126 | 83 | 0.0 | 0.0 | 0.00 | 0.00 | 0.00 | 53 | 978.7 | |
| 20260504033126 | 83 | 0.0 | 0.0 | 0.00 | 0.00 | 0.00 | 54 | 978.2 | |
| 20260504032126 | 83 | 0.0 | 0.0 | 0.00 | 0.00 | 0.00 | 53 | 978.2 | |
| 20260504031126 | 83 | 0.0 | 0.0 | 0.00 | 0.00 | 0.00 | 55 | 978.0 | |
| 20260504030126 | 83 | 0.0 | 0.0 | 0.00 | 0.00 | 0.00 | 57 | 978.0 | |
| 20260504025126 | 82 | 0.0 | 0.0 | 0.00 | 0.00 | 0.00 | 58 | 978.0 | |
| 20260504024126 | 83 | 0.0 | 0.0 | 0.00 | 0.00 | 0.00 | 55 | 977.8 | |
| 20260504023126 | 84 | 0.0 | 0.0 | 0.00 | 0.00 | 0.00 | 53 | 977.7 | |
| 20260504022126 | 85 | 0.0 | 0.0 | 0.00 | 0.00 | 0.00 | 51 | 978.0 | |
| 20260504021126 | 84 | 0.0 | 0.0 | 0.00 | 0.00 | 0.00 | 51 | 977.9 | |
| 20260504020126 | 84 | 0.0 | 0.0 | 0.00 | 0.00 | 0.00 | 51 | 977.8 | |
| 20260504015126 | 85 | 0.0 | 0.0 | 0.00 | 0.00 | 0.00 | 52 | 977.6 | |
| 20260504014126 | 87 | 0.0 | 0.0 | 0.00 | 0.00 | 0.00 | 53 | 977.4 | |
| 20260504013126 | 88 | 0.0 | 0.0 | 0.00 | 0.00 | 0.00 | 53 | 977.3 | |
| 20260504012126 | 88 | 0.0 | 0.0 | 0.00 | 0.00 | 0.00 | 53 | 977.2 | |
| 20260504011126 | 88 | 0.0 | 0.0 | 0.00 | 0.00 | 0.00 | 53 | 976.9 | |
| 20260504010126 | 88 | 0.0 | 0.0 | 0.00 | 0.00 | 0.00 | 54 | 976.7 | |
| 20260504005126 | 88 | 0.0 | 0.0 | 0.00 | 0.00 | 0.00 | 55 | 976.5 | |
| 20260504004126 | 87 | 0.0 | 0.0 | 0.00 | 0.00 | 0.00 | 55 | 976.2 | |
| 20260504003126 | 88 | 0.0 | 0.0 | 0.00 | 0.00 | 0.00 | 55 | 976.0 | |
| 20260504002126 | 89 | 0.0 | 0.0 | 0.00 | 0.00 | 0.00 | 55 | 975.9 | |
| 20260504001126 | 89 | 0.0 | 0.0 | 0.00 | 0.00 | 0.00 | 57 | 975.5 | |
| 20260504000126 | 89 | 0.0 | 0.0 | 0.00 | 0.00 | 0.00 | 54 | 975.5 | |
| 20260503235126 | 89 | 0.0 | 0.0 | 0.00 | 0.00 | 0.00 | 54 | 975.2 | |
| 20260503234126 | 89 | 0.0 | 0.0 | 0.00 | 0.00 | 0.00 | 55 | 975.3 | |
| 20260503233126 | 89 | 0.0 | 0.0 | 0.00 | 0.00 | 0.00 | 55 | 974.9 | |
| 20260503232126 | 89 | 0.0 | 0.0 | 0.00 | 0.00 | 0.00 | 57 | 974.7 | |
| 20260503231126 | 89 | 0.0 | 0.0 | 0.00 | 0.00 | 0.00 | 57 | 974.8 | |
| 20260503230126 | 90 | 0.0 | 0.0 | 0.00 | 0.00 | 0.00 | 56 | 974.6 | |
| 20260503225126 | 90 | 0.0 | 0.0 | 0.00 | 0.00 | 0.00 | 56 | 974.6 | |
| 20260503224126 | 90 | 0.0 | 0.0 | 0.00 | 0.00 | 0.00 | 54 | 974.6 | |
| 20260503223126 | 90 | 0.0 | 0.0 | 0.00 | 0.00 | 0.00 | 53 | 974.5 | |
| 20260503222126 | 88 | 0.0 | 0.0 | 0.00 | 0.00 | 0.00 | 54 | 974.2 | |
| 20260503221126 | 90 | 0.0 | 0.0 | 0.00 | 0.00 | 0.00 | 53 | 974.4 | |
| 20260503220126 | 89 | 0.0 | 0.0 | 0.00 | 0.00 | 0.00 | 53 | 974.3 | |
| 20260503215126 | 89 | 0.0 | 0.0 | 0.00 | 0.00 | 0.00 | 55 | 973.8 | |
| 20260503214126 | 89 | 0.0 | 0.0 | 0.00 | 0.00 | 0.00 | 55 | 973.8 | |
| 20260503213125 | 90 | 0.0 | 0.0 | 0.00 | 0.00 | 0.00 | 55 | 974.0 | |
| 20260503212126 | 90 | 0.0 | 0.0 | 0.00 | 0.00 | 0.00 | 56 | 973.9 | |
| 20260503211126 | 89 | 0.0 | 0.0 | 0.00 | 0.00 | 0.00 | 57 | 973.6 | |
| 20260503210126 | 91 | 0.0 | 0.0 | 0.00 | 0.00 | 0.00 | 54 | 973.7 | |
| 20260503205126 | 90 | 0.0 | 0.0 | 0.00 | 0.00 | 0.00 | 56 | 973.9 | |
| 20260503204126 | 91 | 0.0 | 0.0 | 0.00 | 0.00 | 0.00 | 54 | 973.9 | |
| 20260503203126 | 90 | 0.0 | 0.0 | 0.00 | 0.00 | 0.00 | 56 | 973.9 | |
| 20260503202126 | 90 | 0.0 | 0.0 | 0.00 | 0.00 | 0.00 | 55 | 973.9 | |
| 20260503201126 | 91 | 0.0 | 0.0 | 0.00 | 0.00 | 0.00 | 55 | 974.0 | |
| 20260503200126 | 90 | 0.0 | 0.0 | 0.00 | 0.00 | 0.00 | 55 | 973.6 | |
| 20260503195125 | 91 | 0.0 | 0.0 | 0.00 | 0.00 | 0.00 | 54 | 973.1 | |
| 20260503194126 | 90 | 0.0 | 0.0 | 0.00 | 0.00 | 0.00 | 54 | 973.1 | |
| 20260503193125 | 92 | 0.0 | 0.0 | 0.00 | 0.00 | 0.00 | 53 | 973.1 | |
| 20260503192126 | 92 | 0.0 | 0.0 | 0.00 | 0.00 | 0.00 | 53 | 973.3 | |
| 20260503191126 | 92 | 0.0 | 0.0 | 0.00 | 0.00 | 0.00 | 53 | 973.4 | |
| 20260503190126 | 90 | 0.0 | 0.0 | 0.00 | 0.00 | 0.00 | 55 | 973.4 | |
| 20260503185126 | 88 | 0.0 | 0.0 | 0.00 | 0.00 | 0.00 | 59 | 973.5 | |
| 20260503184125 | 89 | 0.0 | 0.0 | 0.00 | 0.00 | 0.00 | 56 | 974.2 | |
| 20260503183128 | 89 | 0.0 | 0.0 | 0.00 | 0.00 | 0.00 | 58 | 974.6 | |
| 20260503182126 | 90 | 0.0 | 0.0 | 0.00 | 0.00 | 0.00 | 54 | 974.6 | |
| 20260503181126 | 90 | 0.0 | 0.0 | 0.00 | 0.00 | 0.00 | 53 | 974.9 | |
| 20260503180126 | 91 | 0.0 | 0.0 | 0.00 | 0.00 | 0.00 | 50 | 975.5 | |
| 20260503175125 | 91 | 0.0 | 0.0 | 0.00 | 0.00 | 0.00 | 47 | 975.5 | |
| 20260503174125 | 93 | 0.0 | 0.0 | 0.00 | 0.00 | 0.00 | 48 | 976.0 | |
| 20260503173126 | 93 | 0.0 | 0.0 | 0.00 | 0.00 | 0.00 | 47 | 976.0 | |
| 20260503172129 | 94 | 0.0 | 0.0 | 0.00 | 0.00 | 0.00 | 47 | 975.1 | |
| 20260503171125 | 94 | 0.0 | 0.0 | 0.00 | 0.00 | 0.00 | 48 | 974.6 | |
| 20260503170126 | 93 | 0.0 | 0.0 | 0.00 | 0.00 | 0.00 | 49 | 974.5 | |
| 20260503160126 | 94 | 0.0 | 0.0 | 0.00 | 0.00 | 0.00 | 49 | 973.7 | |
| 20260503150126 | 96 | 0.0 | 0.0 | 0.00 | 0.00 | 0.00 | 46 | 973.4 | |
| 20260503140125 | 95 | 0.0 | 0.0 | 0.00 | 0.00 | 0.00 | 46 | 973.3 | |
| 20260503131125 | 96 | 0.0 | 0.0 | 0.00 | 0.00 | 0.00 | 43 | 973.5 | |
| 20260503130125 | 96 | 0.0 | 0.0 | 0.00 | 0.00 | 0.00 | 42 | 973.5 | |
| 20260503110509 | 71 | 0.0 | 0.0 | 0.00 | 0.00 | 0.00 | 81 | 641.1 | |
| 20260503090509 | 71 | 0.0 | 0.0 | 0.00 | 0.00 | 0.00 | 81 | 641.1 | |
| 20260503081509 | 71 | 0.0 | 0.0 | 0.00 | 0.00 | 0.00 | 81 | 641.1 | |
| 20260503080509 | 71 | 0.0 | 0.0 | 0.00 | 0.00 | 0.00 | 81 | 641.1 | |
| 20260503072514 | 71 | 0.0 | 0.0 | 0.00 | 0.00 | 0.00 | 81 | 641.1 | |
| 20260503070557 | 90 | 0.0 | 0.0 | 0.00 | 0.00 | 0.00 | 55 | 975.0 | |
| 20260503054557 | 86 | 0.0 | 0.0 | 0.00 | 0.00 | 0.00 | 67 | 975.2 | |
| 20260503053557 | 85 | 0.0 | 0.0 | 0.00 | 0.00 | 0.00 | 68 | 975.2 |